Date,TemperatureHighF,TemperatureAvgF,TemperatureLowF,DewpointHighF,DewpointAvgF,DewpointLowF,HumidityHigh,HumidityAvg,HumidityLow,PressureMaxIn,PressureMinIn,WindSpeedMaxMPH,WindSpeedAvgMPH,GustSpeedMaxMPH,PrecipitationSumIn
2013-4-1,56.1,48.4,42.2,41.9,37.2,27.8,82,66,52,30.19,29.93,10,3,15,0.01
2013-4-2,42.2,36.9,34.8,35.2,32.3,27.7,95,84,59,30.29,30.16,8,2,12,0.15
2013-4-3,52.3,43.1,33.5,34.4,25.6,21.5,95,54,31,30.31,30.17,15,3,21,0.00
2013-4-4,54.2,46.5,37.3,36.4,31.3,24.5,93,58,38,30.18,30.05,11,2,15,0.24
2013-4-5,70.7,55.4,39.0,38.9,33.6,28.4,67,46,29,30.18,29.97,10,2,13,0.00
2013-4-6,75.4,62.3,49.7,48.0,42.3,35.8,64,49,34,29.97,29.74,21,5,30,0.00
2013-4-7,78.3,66.6,56.8,57.6,52.8,47.6,81,62,42,29.87,29.70,14,4,24,0.00
2013-4-8,73.9,65.0,57.6,61.5,57.8,54.6,92,78,63,29.77,29.66,16,4,21,0.02
2013-4-9,79.2,68.1,59.9,63.2,59.1,55.2,87,74,54,29.79,29.68,11,3,18,0.00
2013-4-10,72.7,56.2,38.6,64.9,51.9,36.9,100,86,71,29.84,29.60,21,5,25,0.75
2013-4-11,49.4,40.1,33.6,37.1,32.9,30.4,95,77,53,29.83,29.73,14,6,22,0.00
2013-4-12,55.7,44.5,35.6,36.3,32.4,27.5,83,64,43,30.03,29.79,17,4,23,0.00
2013-4-13,69.0,54.8,39.7,45.7,39.4,33.3,79,58,40,30.06,29.81,10,2,17,0.00
2013-4-14,80.8,65.6,51.1,58.2,48.0,39.4,84,58,25,29.82,29.49,17,4,27,0.00
2013-4-15,80.5,67.7,58.3,64.3,60.0,53.8,93,78,55,29.79,29.65,12,3,18,0.00
2013-4-16,73.2,57.4,50.7,61.8,53.3,49.3,100,87,66,29.98,29.79,9,2,13,0.00
2013-4-17,83.8,69.2,51.6,68.8,60.9,49.1,100,77,55,29.97,29.60,16,4,25,0.00
2013-4-18,75.5,52.3,38.3,65.9,48.0,29.6,100,86,68,29.91,29.50,19,6,27,3.26
2013-4-19,54.2,43.0,34.2,30.4,27.2,22.3,74,55,33,30.10,29.91,16,7,26,0.00
2013-4-20,66.7,52.4,35.0,39.2,34.3,29.0,85,53,29,30.23,30.10,9,1,12,0.00
2013-4-21,67.2,57.1,48.0,42.9,40.4,36.5,79,56,36,30.28,30.11,13,3,18,0.00
2013-4-22,71.8,58.9,46.2,45.5,40.5,37.4,74,53,31,30.19,29.87,10,2,18,0.00
2013-4-23,59.2,49.2,36.2,55.1,45.0,34.6,100,87,60,30.07,29.77,15,3,23,0.61
2013-4-24,53.9,42.3,34.7,36.0,31.3,25.5,95,68,37,30.31,30.07,13,4,20,0.00
2013-4-25,70.9,53.8,33.9,38.5,32.0,26.6,80,47,23,30.37,30.21,7,1,10,0.00
2013-4-26,57.8,49.1,46.3,48.3,44.5,37.7,100,86,48,30.34,30.16,10,3,17,1.17
2013-4-27,55.1,50.2,46.7,54.0,49.8,46.7,100,99,92,30.17,29.97,9,2,15,0.35
2013-4-28,75.5,58.7,48.8,54.4,49.1,44.4,100,74,34,30.02,29.85,8,2,12,0.00
2013-4-29,86.7,68.8,50.4,61.5,54.3,49.3,100,65,31,29.90,29.72,13,2,18,0.00
2013-4-30,84.3,71.8,58.5,60.0,53.0,45.8,90,56,28,29.84,29.75,14,2,23,0.00